sensor_id;sensor_type;location;lat;lon;timestamp;P1;durP1;ratioP1;P2;durP2;ratioP2
20976;SDS011;10647;51.016;3.720;2023-01-09T00:00:05;6.30;;;2.23;;
20976;SDS011;10647;51.016;3.720;2023-01-09T00:02:34;5.50;;;2.10;;
20976;SDS011;10647;51.016;3.720;2023-01-09T00:05:03;8.23;;;2.50;;
20976;SDS011;10647;51.016;3.720;2023-01-09T00:07:31;7.13;;;2.43;;
20976;SDS011;10647;51.016;3.720;2023-01-09T00:09:59;4.43;;;2.10;;
20976;SDS011;10647;51.016;3.720;2023-01-09T00:12:27;6.07;;;2.30;;
20976;SDS011;10647;51.016;3.720;2023-01-09T00:14:55;6.73;;;2.10;;
20976;SDS011;10647;51.016;3.720;2023-01-09T00:17:22;8.63;;;2.43;;
20976;SDS011;10647;51.016;3.720;2023-01-09T00:19:49;4.97;;;2.30;;
20976;SDS011;10647;51.016;3.720;2023-01-09T00:22:17;5.03;;;2.20;;
20976;SDS011;10647;51.016;3.720;2023-01-09T00:24:45;9.87;;;4.00;;
20976;SDS011;10647;51.016;3.720;2023-01-09T00:27:12;9.33;;;1.93;;
20976;SDS011;10647;51.016;3.720;2023-01-09T00:29:41;7.47;;;2.50;;
20976;SDS011;10647;51.016;3.720;2023-01-09T00:32:10;4.17;;;2.03;;
20976;SDS011;10647;51.016;3.720;2023-01-09T00:34:39;4.13;;;1.77;;
20976;SDS011;10647;51.016;3.720;2023-01-09T00:37:08;7.17;;;2.10;;
20976;SDS011;10647;51.016;3.720;2023-01-09T00:39:38;8.97;;;2.20;;
20976;SDS011;10647;51.016;3.720;2023-01-09T00:42:09;4.90;;;2.20;;
20976;SDS011;10647;51.016;3.720;2023-01-09T00:44:39;8.67;;;2.37;;
20976;SDS011;10647;51.016;3.720;2023-01-09T00:47:09;6.37;;;1.90;;
20976;SDS011;10647;51.016;3.720;2023-01-09T00:49:41;7.77;;;2.77;;
20976;SDS011;10647;51.016;3.720;2023-01-09T00:52:10;6.77;;;2.13;;
20976;SDS011;10647;51.016;3.720;2023-01-09T00:54:58;7.43;;;2.07;;
20976;SDS011;10647;51.016;3.720;2023-01-09T00:57:26;11.37;;;2.20;;
20976;SDS011;10647;51.016;3.720;2023-01-09T00:59:53;8.53;;;2.20;;
20976;SDS011;10647;51.016;3.720;2023-01-09T01:02:21;6.50;;;2.20;;
20976;SDS011;10647;51.016;3.720;2023-01-09T01:04:48;6.37;;;2.27;;
20976;SDS011;10647;51.016;3.720;2023-01-09T01:07:34;5.17;;;2.47;;
20976;SDS011;10647;51.016;3.720;2023-01-09T01:10:05;5.73;;;2.03;;
20976;SDS011;10647;51.016;3.720;2023-01-09T01:12:35;5.43;;;1.90;;
20976;SDS011;10647;51.016;3.720;2023-01-09T01:15:04;7.33;;;2.23;;
20976;SDS011;10647;51.016;3.720;2023-01-09T01:17:33;8.00;;;2.10;;
20976;SDS011;10647;51.016;3.720;2023-01-09T01:20:07;11.10;;;2.17;;
20976;SDS011;10647;51.016;3.720;2023-01-09T01:22:36;9.00;;;2.50;;
20976;SDS011;10647;51.016;3.720;2023-01-09T01:25:04;8.27;;;2.00;;
20976;SDS011;10647;51.016;3.720;2023-01-09T01:27:31;5.03;;;2.13;;
20976;SDS011;10647;51.016;3.720;2023-01-09T01:29:59;8.93;;;1.80;;
20976;SDS011;10647;51.016;3.720;2023-01-09T01:32:26;8.53;;;1.80;;
20976;SDS011;10647;51.016;3.720;2023-01-09T01:34:54;8.77;;;1.80;;
20976;SDS011;10647;51.016;3.720;2023-01-09T01:37:22;7.73;;;1.67;;
20976;SDS011;10647;51.016;3.720;2023-01-09T01:39:50;9.53;;;1.47;;
20976;SDS011;10647;51.016;3.720;2023-01-09T01:42:18;5.37;;;1.20;;
20976;SDS011;10647;51.016;3.720;2023-01-09T01:44:59;5.77;;;1.50;;
20976;SDS011;10647;51.016;3.720;2023-01-09T01:50:49;8.20;;;1.70;;
20976;SDS011;10647;51.016;3.720;2023-01-09T01:53:22;5.80;;;1.37;;
20976;SDS011;10647;51.016;3.720;2023-01-09T01:56:19;7.63;;;1.30;;
20976;SDS011;10647;51.016;3.720;2023-01-09T01:58:56;6.03;;;1.40;;
20976;SDS011;10647;51.016;3.720;2023-01-09T02:01:42;4.70;;;1.20;;
20976;SDS011;10647;51.016;3.720;2023-01-09T02:04:12;5.90;;;1.60;;
20976;SDS011;10647;51.016;3.720;2023-01-09T02:06:40;4.30;;;1.27;;
20976;SDS011;10647;51.016;3.720;2023-01-09T02:09:09;6.17;;;1.10;;
20976;SDS011;10647;51.016;3.720;2023-01-09T02:11:43;8.20;;;1.70;;
20976;SDS011;10647;51.016;3.720;2023-01-09T02:14:32;6.50;;;1.57;;
20976;SDS011;10647;51.016;3.720;2023-01-09T02:25:18;4.47;;;1.13;;
20976;SDS011;10647;51.016;3.720;2023-01-09T02:36:55;4.23;;;1.10;;
20976;SDS011;10647;51.016;3.720;2023-01-09T02:42:46;4.30;;;1.20;;
20976;SDS011;10647;51.016;3.720;2023-01-09T02:45:15;8.63;;;1.33;;
20976;SDS011;10647;51.016;3.720;2023-01-09T02:50:34;7.90;;;1.33;;
20976;SDS011;10647;51.016;3.720;2023-01-09T02:53:27;10.57;;;1.70;;
20976;SDS011;10647;51.016;3.720;2023-01-09T02:56:05;6.03;;;1.47;;
20976;SDS011;10647;51.016;3.720;2023-01-09T02:58:58;8.47;;;1.20;;
20976;SDS011;10647;51.016;3.720;2023-01-09T03:01:40;6.37;;;1.13;;
20976;SDS011;10647;51.016;3.720;2023-01-09T03:04:37;13.00;;;2.00;;
20976;SDS011;10647;51.016;3.720;2023-01-09T03:10:12;9.20;;;1.93;;
20976;SDS011;10647;51.016;3.720;2023-01-09T03:12:39;6.57;;;1.27;;
20976;SDS011;10647;51.016;3.720;2023-01-09T03:15:10;7.73;;;1.43;;
20976;SDS011;10647;51.016;3.720;2023-01-09T03:20:27;11.80;;;1.63;;
20976;SDS011;10647;51.016;3.720;2023-01-09T03:22:58;5.93;;;1.30;;
20976;SDS011;10647;51.016;3.720;2023-01-09T03:25:27;10.03;;;1.60;;
20976;SDS011;10647;51.016;3.720;2023-01-09T03:27:57;4.97;;;0.97;;
20976;SDS011;10647;51.016;3.720;2023-01-09T03:30:44;7.17;;;1.43;;
20976;SDS011;10647;51.016;3.720;2023-01-09T03:33:12;9.23;;;1.57;;
20976;SDS011;10647;51.016;3.720;2023-01-09T03:35:39;6.63;;;1.60;;
20976;SDS011;10647;51.016;3.720;2023-01-09T03:38:07;10.53;;;1.70;;
20976;SDS011;10647;51.016;3.720;2023-01-09T03:40:34;3.87;;;1.40;;
20976;SDS011;10647;51.016;3.720;2023-01-09T03:43:02;5.03;;;1.70;;
20976;SDS011;10647;51.016;3.720;2023-01-09T03:45:29;5.43;;;1.33;;
20976;SDS011;10647;51.016;3.720;2023-01-09T03:47:57;8.73;;;1.37;;
20976;SDS011;10647;51.016;3.720;2023-01-09T03:50:24;8.00;;;1.70;;
20976;SDS011;10647;51.016;3.720;2023-01-09T03:52:52;10.60;;;1.47;;
20976;SDS011;10647;51.016;3.720;2023-01-09T03:55:19;8.23;;;1.70;;
20976;SDS011;10647;51.016;3.720;2023-01-09T03:57:47;9.43;;;1.53;;
20976;SDS011;10647;51.016;3.720;2023-01-09T04:00:17;11.50;;;1.67;;
20976;SDS011;10647;51.016;3.720;2023-01-09T04:02:45;13.13;;;2.00;;
20976;SDS011;10647;51.016;3.720;2023-01-09T04:05:13;10.60;;;1.33;;
20976;SDS011;10647;51.016;3.720;2023-01-09T04:07:41;10.27;;;1.53;;
20976;SDS011;10647;51.016;3.720;2023-01-09T04:10:09;10.27;;;1.50;;
20976;SDS011;10647;51.016;3.720;2023-01-09T04:12:37;12.93;;;1.80;;
20976;SDS011;10647;51.016;3.720;2023-01-09T04:15:05;11.00;;;1.80;;
20976;SDS011;10647;51.016;3.720;2023-01-09T04:17:33;8.57;;;1.83;;
20976;SDS011;10647;51.016;3.720;2023-01-09T04:20:00;6.57;;;1.47;;
20976;SDS011;10647;51.016;3.720;2023-01-09T04:22:29;7.33;;;1.60;;
20976;SDS011;10647;51.016;3.720;2023-01-09T04:24:57;9.87;;;2.03;;
20976;SDS011;10647;51.016;3.720;2023-01-09T04:27:30;8.47;;;1.93;;
20976;SDS011;10647;51.016;3.720;2023-01-09T04:30:01;17.10;;;1.93;;
20976;SDS011;10647;51.016;3.720;2023-01-09T04:32:31;9.57;;;1.37;;
20976;SDS011;10647;51.016;3.720;2023-01-09T04:34:58;11.47;;;1.97;;
20976;SDS011;10647;51.016;3.720;2023-01-09T04:37:26;11.80;;;1.97;;
20976;SDS011;10647;51.016;3.720;2023-01-09T04:39:53;11.40;;;1.73;;
20976;SDS011;10647;51.016;3.720;2023-01-09T04:42:22;10.47;;;1.67;;
20976;SDS011;10647;51.016;3.720;2023-01-09T04:44:49;12.43;;;1.93;;
20976;SDS011;10647;51.016;3.720;2023-01-09T04:47:20;10.53;;;2.20;;
20976;SDS011;10647;51.016;3.720;2023-01-09T04:49:48;10.20;;;1.50;;
20976;SDS011;10647;51.016;3.720;2023-01-09T04:52:16;7.57;;;1.30;;
20976;SDS011;10647;51.016;3.720;2023-01-09T04:54:44;12.97;;;1.63;;
20976;SDS011;10647;51.016;3.720;2023-01-09T04:57:12;10.43;;;1.50;;
20976;SDS011;10647;51.016;3.720;2023-01-09T04:59:40;9.07;;;1.70;;
20976;SDS011;10647;51.016;3.720;2023-01-09T05:02:08;11.83;;;1.93;;
20976;SDS011;10647;51.016;3.720;2023-01-09T05:04:36;9.93;;;2.00;;
20976;SDS011;10647;51.016;3.720;2023-01-09T05:07:03;11.57;;;1.60;;
20976;SDS011;10647;51.016;3.720;2023-01-09T05:09:31;12.83;;;1.93;;
20976;SDS011;10647;51.016;3.720;2023-01-09T05:11:59;14.47;;;1.97;;
20976;SDS011;10647;51.016;3.720;2023-01-09T05:14:26;13.30;;;1.87;;
20976;SDS011;10647;51.016;3.720;2023-01-09T05:16:54;9.77;;;1.70;;
20976;SDS011;10647;51.016;3.720;2023-01-09T05:19:21;12.13;;;1.80;;
20976;SDS011;10647;51.016;3.720;2023-01-09T05:21:49;11.80;;;1.63;;
20976;SDS011;10647;51.016;3.720;2023-01-09T05:24:16;7.90;;;1.30;;
20976;SDS011;10647;51.016;3.720;2023-01-09T05:26:44;7.07;;;1.60;;
20976;SDS011;10647;51.016;3.720;2023-01-09T05:29:11;11.90;;;1.97;;
20976;SDS011;10647;51.016;3.720;2023-01-09T05:31:39;6.87;;;1.90;;
20976;SDS011;10647;51.016;3.720;2023-01-09T05:34:06;11.57;;;1.83;;
20976;SDS011;10647;51.016;3.720;2023-01-09T05:36:34;12.20;;;1.80;;
20976;SDS011;10647;51.016;3.720;2023-01-09T05:39:01;8.90;;;1.60;;
20976;SDS011;10647;51.016;3.720;2023-01-09T05:41:30;9.53;;;2.17;;
20976;SDS011;10647;51.016;3.720;2023-01-09T05:43:57;10.13;;;1.57;;
20976;SDS011;10647;51.016;3.720;2023-01-09T05:46:25;8.83;;;1.60;;
20976;SDS011;10647;51.016;3.720;2023-01-09T05:48:52;8.93;;;2.00;;
20976;SDS011;10647;51.016;3.720;2023-01-09T05:51:20;14.77;;;1.90;;
20976;SDS011;10647;51.016;3.720;2023-01-09T05:53:47;7.00;;;1.60;;
20976;SDS011;10647;51.016;3.720;2023-01-09T05:56:15;11.10;;;2.13;;
20976;SDS011;10647;51.016;3.720;2023-01-09T05:58:42;10.60;;;1.93;;
20976;SDS011;10647;51.016;3.720;2023-01-09T06:01:10;13.10;;;2.10;;
20976;SDS011;10647;51.016;3.720;2023-01-09T06:03:38;8.67;;;1.90;;
20976;SDS011;10647;51.016;3.720;2023-01-09T06:06:05;12.30;;;1.80;;
20976;SDS011;10647;51.016;3.720;2023-01-09T06:08:33;12.73;;;2.27;;
20976;SDS011;10647;51.016;3.720;2023-01-09T06:11:00;12.07;;;1.70;;
20976;SDS011;10647;51.016;3.720;2023-01-09T06:13:29;14.07;;;2.57;;
20976;SDS011;10647;51.016;3.720;2023-01-09T06:15:56;13.83;;;1.77;;
20976;SDS011;10647;51.016;3.720;2023-01-09T06:18:24;8.43;;;1.73;;
20976;SDS011;10647;51.016;3.720;2023-01-09T06:20:51;15.70;;;2.10;;
20976;SDS011;10647;51.016;3.720;2023-01-09T06:23:20;17.27;;;6.23;;
20976;SDS011;10647;51.016;3.720;2023-01-09T06:25:47;13.27;;;2.13;;
20976;SDS011;10647;51.016;3.720;2023-01-09T06:28:17;10.73;;;1.90;;
20976;SDS011;10647;51.016;3.720;2023-01-09T06:30:44;10.40;;;1.90;;
20976;SDS011;10647;51.016;3.720;2023-01-09T06:33:18;9.93;;;1.53;;
20976;SDS011;10647;51.016;3.720;2023-01-09T06:36:06;11.27;;;1.77;;
20976;SDS011;10647;51.016;3.720;2023-01-09T06:38:40;10.03;;;1.70;;
20976;SDS011;10647;51.016;3.720;2023-01-09T06:41:09;9.53;;;2.00;;
20976;SDS011;10647;51.016;3.720;2023-01-09T06:43:38;7.30;;;1.90;;
20976;SDS011;10647;51.016;3.720;2023-01-09T06:46:05;12.37;;;1.63;;
20976;SDS011;10647;51.016;3.720;2023-01-09T06:48:33;14.47;;;1.70;;
20976;SDS011;10647;51.016;3.720;2023-01-09T06:51:01;10.23;;;2.27;;
20976;SDS011;10647;51.016;3.720;2023-01-09T06:53:28;11.27;;;1.80;;
20976;SDS011;10647;51.016;3.720;2023-01-09T06:55:56;10.07;;;1.60;;
20976;SDS011;10647;51.016;3.720;2023-01-09T06:58:23;12.40;;;1.70;;
20976;SDS011;10647;51.016;3.720;2023-01-09T07:00:54;10.57;;;1.60;;
20976;SDS011;10647;51.016;3.720;2023-01-09T07:03:23;8.73;;;1.57;;
20976;SDS011;10647;51.016;3.720;2023-01-09T07:05:51;11.13;;;1.90;;
20976;SDS011;10647;51.016;3.720;2023-01-09T07:08:18;13.33;;;1.83;;
20976;SDS011;10647;51.016;3.720;2023-01-09T07:10:49;8.93;;;1.43;;
20976;SDS011;10647;51.016;3.720;2023-01-09T07:13:16;7.77;;;2.27;;
20976;SDS011;10647;51.016;3.720;2023-01-09T07:15:44;13.37;;;1.90;;
20976;SDS011;10647;51.016;3.720;2023-01-09T07:18:12;13.53;;;1.50;;
20976;SDS011;10647;51.016;3.720;2023-01-09T07:20:41;9.83;;;1.60;;
20976;SDS011;10647;51.016;3.720;2023-01-09T07:23:12;9.77;;;1.50;;
20976;SDS011;10647;51.016;3.720;2023-01-09T07:25:46;7.83;;;1.43;;
20976;SDS011;10647;51.016;3.720;2023-01-09T07:28:16;14.20;;;2.17;;
20976;SDS011;10647;51.016;3.720;2023-01-09T07:30:45;11.97;;;1.70;;
20976;SDS011;10647;51.016;3.720;2023-01-09T07:33:14;7.07;;;1.50;;
20976;SDS011;10647;51.016;3.720;2023-01-09T07:35:42;13.70;;;1.90;;
20976;SDS011;10647;51.016;3.720;2023-01-09T07:38:09;11.60;;;1.77;;
20976;SDS011;10647;51.016;3.720;2023-01-09T07:40:37;12.33;;;2.00;;
20976;SDS011;10647;51.016;3.720;2023-01-09T07:43:04;8.97;;;1.67;;
20976;SDS011;10647;51.016;3.720;2023-01-09T07:45:33;11.00;;;2.03;;
20976;SDS011;10647;51.016;3.720;2023-01-09T07:48:00;11.23;;;2.00;;
20976;SDS011;10647;51.016;3.720;2023-01-09T07:52:58;9.47;;;1.90;;
20976;SDS011;10647;51.016;3.720;2023-01-09T07:55:26;12.47;;;1.90;;
20976;SDS011;10647;51.016;3.720;2023-01-09T07:57:54;9.17;;;1.40;;
20976;SDS011;10647;51.016;3.720;2023-01-09T08:03:08;11.80;;;1.83;;
20976;SDS011;10647;51.016;3.720;2023-01-09T08:05:35;11.73;;;1.73;;
20976;SDS011;10647;51.016;3.720;2023-01-09T08:08:04;8.90;;;1.70;;
20976;SDS011;10647;51.016;3.720;2023-01-09T08:10:40;5.63;;;1.50;;
20976;SDS011;10647;51.016;3.720;2023-01-09T08:13:28;9.50;;;1.60;;
20976;SDS011;10647;51.016;3.720;2023-01-09T08:15:55;10.23;;;1.77;;
20976;SDS011;10647;51.016;3.720;2023-01-09T08:18:23;8.63;;;1.50;;
20976;SDS011;10647;51.016;3.720;2023-01-09T08:20:50;11.10;;;1.30;;
20976;SDS011;10647;51.016;3.720;2023-01-09T08:23:18;15.07;;;1.67;;
20976;SDS011;10647;51.016;3.720;2023-01-09T08:25:46;9.70;;;1.73;;
20976;SDS011;10647;51.016;3.720;2023-01-09T08:28:15;7.07;;;1.40;;
20976;SDS011;10647;51.016;3.720;2023-01-09T08:30:42;7.80;;;1.60;;
20976;SDS011;10647;51.016;3.720;2023-01-09T08:33:10;8.07;;;1.50;;
20976;SDS011;10647;51.016;3.720;2023-01-09T08:35:38;6.77;;;1.77;;
20976;SDS011;10647;51.016;3.720;2023-01-09T08:38:05;9.17;;;1.50;;
20976;SDS011;10647;51.016;3.720;2023-01-09T08:40:34;8.53;;;1.60;;
20976;SDS011;10647;51.016;3.720;2023-01-09T08:43:02;9.43;;;1.50;;
20976;SDS011;10647;51.016;3.720;2023-01-09T08:45:48;9.30;;;1.67;;
20976;SDS011;10647;51.016;3.720;2023-01-09T08:48:30;11.70;;;2.20;;
20976;SDS011;10647;51.016;3.720;2023-01-09T08:50:59;7.37;;;1.70;;
20976;SDS011;10647;51.016;3.720;2023-01-09T08:53:27;8.53;;;1.80;;
20976;SDS011;10647;51.016;3.720;2023-01-09T08:55:56;9.27;;;1.90;;
20976;SDS011;10647;51.016;3.720;2023-01-09T08:58:24;10.43;;;1.50;;
20976;SDS011;10647;51.016;3.720;2023-01-09T09:00:52;9.63;;;2.10;;
20976;SDS011;10647;51.016;3.720;2023-01-09T09:03:19;10.90;;;1.67;;
20976;SDS011;10647;51.016;3.720;2023-01-09T09:05:47;12.67;;;2.43;;
20976;SDS011;10647;51.016;3.720;2023-01-09T09:08:15;11.43;;;1.90;;
20976;SDS011;10647;51.016;3.720;2023-01-09T09:10:43;6.90;;;1.67;;
20976;SDS011;10647;51.016;3.720;2023-01-09T09:13:13;10.30;;;1.70;;
20976;SDS011;10647;51.016;3.720;2023-01-09T09:15:41;9.63;;;1.77;;
20976;SDS011;10647;51.016;3.720;2023-01-09T09:18:14;5.73;;;1.30;;
20976;SDS011;10647;51.016;3.720;2023-01-09T09:20:43;14.00;;;2.40;;
20976;SDS011;10647;51.016;3.720;2023-01-09T09:23:12;6.40;;;1.50;;
20976;SDS011;10647;51.016;3.720;2023-01-09T09:25:41;8.23;;;1.83;;
20976;SDS011;10647;51.016;3.720;2023-01-09T09:30:55;6.00;;;1.40;;
20976;SDS011;10647;51.016;3.720;2023-01-09T09:33:23;7.63;;;1.30;;
20976;SDS011;10647;51.016;3.720;2023-01-09T09:35:51;5.47;;;1.10;;
20976;SDS011;10647;51.016;3.720;2023-01-09T09:38:19;9.43;;;1.30;;
20976;SDS011;10647;51.016;3.720;2023-01-09T09:40:54;9.37;;;1.77;;
20976;SDS011;10647;51.016;3.720;2023-01-09T09:46:56;4.93;;;1.50;;
20976;SDS011;10647;51.016;3.720;2023-01-09T09:49:23;11.03;;;1.50;;
20976;SDS011;10647;51.016;3.720;2023-01-09T09:51:55;7.43;;;1.30;;
20976;SDS011;10647;51.016;3.720;2023-01-09T09:54:39;7.67;;;1.40;;
20976;SDS011;10647;51.016;3.720;2023-01-09T09:59:53;7.47;;;1.67;;
20976;SDS011;10647;51.016;3.720;2023-01-09T10:05:20;4.87;;;1.50;;
20976;SDS011;10647;51.016;3.720;2023-01-09T10:07:52;5.07;;;1.90;;
20976;SDS011;10647;51.016;3.720;2023-01-09T10:13:10;8.10;;;1.80;;
20976;SDS011;10647;51.016;3.720;2023-01-09T10:27:36;10.00;;;1.73;;
20976;SDS011;10647;51.016;3.720;2023-01-09T10:30:36;5.50;;;1.50;;
20976;SDS011;10647;51.016;3.720;2023-01-09T10:36:17;8.37;;;1.70;;
20976;SDS011;10647;51.016;3.720;2023-01-09T10:39:00;8.97;;;1.70;;
20976;SDS011;10647;51.016;3.720;2023-01-09T10:41:40;7.53;;;1.80;;
20976;SDS011;10647;51.016;3.720;2023-01-09T10:44:34;8.50;;;1.73;;
20976;SDS011;10647;51.016;3.720;2023-01-09T10:49:49;11.37;;;1.93;;
20976;SDS011;10647;51.016;3.720;2023-01-09T10:52:18;8.00;;;2.47;;
20976;SDS011;10647;51.016;3.720;2023-01-09T10:57:41;13.13;;;2.00;;
20976;SDS011;10647;51.016;3.720;2023-01-09T11:02:46;9.00;;;1.90;;
20976;SDS011;10647;51.016;3.720;2023-01-09T11:05:16;9.70;;;3.00;;
20976;SDS011;10647;51.016;3.720;2023-01-09T11:08:00;11.57;;;2.23;;
20976;SDS011;10647;51.016;3.720;2023-01-09T11:10:34;14.27;;;2.43;;
20976;SDS011;10647;51.016;3.720;2023-01-09T11:13:11;10.17;;;1.90;;
20976;SDS011;10647;51.016;3.720;2023-01-09T11:15:27;10.17;;;2.27;;
20976;SDS011;10647;51.016;3.720;2023-01-09T11:18:15;10.30;;;2.33;;
20976;SDS011;10647;51.016;3.720;2023-01-09T11:20:46;9.03;;;2.20;;
20976;SDS011;10647;51.016;3.720;2023-01-09T11:23:35;11.37;;;2.20;;
20976;SDS011;10647;51.016;3.720;2023-01-09T11:25:58;11.00;;;2.23;;
20976;SDS011;10647;51.016;3.720;2023-01-09T11:28:27;5.93;;;1.90;;
20976;SDS011;10647;51.016;3.720;2023-01-09T11:33:27;16.50;;;2.47;;
20976;SDS011;10647;51.016;3.720;2023-01-09T11:36:05;13.30;;;2.20;;
20976;SDS011;10647;51.016;3.720;2023-01-09T11:41:33;13.77;;;2.07;;
20976;SDS011;10647;51.016;3.720;2023-01-09T11:43:59;10.83;;;2.27;;
20976;SDS011;10647;51.016;3.720;2023-01-09T11:46:36;10.07;;;1.97;;
20976;SDS011;10647;51.016;3.720;2023-01-09T11:51:43;13.30;;;2.00;;
20976;SDS011;10647;51.016;3.720;2023-01-09T11:54:23;12.27;;;2.20;;
20976;SDS011;10647;51.016;3.720;2023-01-09T11:57:16;14.70;;;2.20;;
20976;SDS011;10647;51.016;3.720;2023-01-09T11:59:44;9.70;;;2.10;;
20976;SDS011;10647;51.016;3.720;2023-01-09T12:02:33;15.60;;;2.13;;
20976;SDS011;10647;51.016;3.720;2023-01-09T12:05:27;16.07;;;2.53;;
20976;SDS011;10647;51.016;3.720;2023-01-09T12:07:54;14.30;;;2.10;;
20976;SDS011;10647;51.016;3.720;2023-01-09T12:21:29;14.87;;;2.87;;
20976;SDS011;10647;51.016;3.720;2023-01-09T12:24:39;19.77;;;3.30;;
20976;SDS011;10647;51.016;3.720;2023-01-09T12:33:11;13.20;;;3.43;;
20976;SDS011;10647;51.016;3.720;2023-01-09T12:36:13;12.87;;;3.70;;
20976;SDS011;10647;51.016;3.720;2023-01-09T12:38:47;15.47;;;4.13;;
20976;SDS011;10647;51.016;3.720;2023-01-09T12:41:37;13.33;;;4.03;;
20976;SDS011;10647;51.016;3.720;2023-01-09T12:44:23;11.20;;;3.57;;
20976;SDS011;10647;51.016;3.720;2023-01-09T12:52:25;17.33;;;3.37;;
20976;SDS011;10647;51.016;3.720;2023-01-09T13:00:14;13.37;;;2.77;;
20976;SDS011;10647;51.016;3.720;2023-01-09T13:03:11;17.43;;;3.10;;
20976;SDS011;10647;51.016;3.720;2023-01-09T13:06:01;14.87;;;2.27;;
20976;SDS011;10647;51.016;3.720;2023-01-09T13:08:38;12.93;;;2.90;;
20976;SDS011;10647;51.016;3.720;2023-01-09T13:11:10;6.53;;;1.60;;
20976;SDS011;10647;51.016;3.720;2023-01-09T13:14:29;14.20;;;2.27;;
20976;SDS011;10647;51.016;3.720;2023-01-09T13:16:56;14.43;;;2.02;;
20976;SDS011;10647;51.016;3.720;2023-01-09T13:19:38;8.63;;;1.92;;
20976;SDS011;10647;51.016;3.720;2023-01-09T13:22:09;10.75;;;2.12;;
20976;SDS011;10647;51.016;3.720;2023-01-09T13:24:48;8.75;;;1.90;;
20976;SDS011;10647;51.016;3.720;2023-01-09T13:27:30;8.05;;;2.17;;
20976;SDS011;10647;51.016;3.720;2023-01-09T13:30:14;13.35;;;2.20;;
20976;SDS011;10647;51.016;3.720;2023-01-09T13:35:54;13.63;;;2.17;;
20976;SDS011;10647;51.016;3.720;2023-01-09T13:38:39;16.27;;;2.13;;
20976;SDS011;10647;51.016;3.720;2023-01-09T13:41:12;11.53;;;1.90;;
20976;SDS011;10647;51.016;3.720;2023-01-09T13:46:51;6.07;;;1.33;;
20976;SDS011;10647;51.016;3.720;2023-01-09T13:52:30;9.90;;;2.00;;
20976;SDS011;10647;51.016;3.720;2023-01-09T13:55:25;11.70;;;2.30;;
20976;SDS011;10647;51.016;3.720;2023-01-09T14:03:32;8.90;;;1.73;;
20976;SDS011;10647;51.016;3.720;2023-01-09T14:08:33;11.87;;;1.93;;
20976;SDS011;10647;51.016;3.720;2023-01-09T14:11:02;11.00;;;1.57;;
20976;SDS011;10647;51.016;3.720;2023-01-09T14:13:45;8.70;;;1.57;;
20976;SDS011;10647;51.016;3.720;2023-01-09T14:16:17;10.77;;;1.30;;
20976;SDS011;10647;51.016;3.720;2023-01-09T14:19:02;10.67;;;2.60;;
20976;SDS011;10647;51.016;3.720;2023-01-09T14:21:43;11.80;;;2.03;;
20976;SDS011;10647;51.016;3.720;2023-01-09T14:24:23;14.70;;;2.20;;
20976;SDS011;10647;51.016;3.720;2023-01-09T14:30:33;10.80;;;1.40;;
20976;SDS011;10647;51.016;3.720;2023-01-09T14:38:48;8.87;;;1.30;;
20976;SDS011;10647;51.016;3.720;2023-01-09T14:50:20;10.23;;;1.70;;
20976;SDS011;10647;51.016;3.720;2023-01-09T14:53:03;10.93;;;1.63;;
20976;SDS011;10647;51.016;3.720;2023-01-09T14:55:44;7.60;;;1.17;;
20976;SDS011;10647;51.016;3.720;2023-01-09T14:58:10;10.17;;;1.70;;
20976;SDS011;10647;51.016;3.720;2023-01-09T15:00:46;9.73;;;1.40;;
20976;SDS011;10647;51.016;3.720;2023-01-09T15:03:24;10.03;;;1.50;;
20976;SDS011;10647;51.016;3.720;2023-01-09T15:06:09;15.13;;;2.10;;
20976;SDS011;10647;51.016;3.720;2023-01-09T15:08:37;9.60;;;2.00;;
20976;SDS011;10647;51.016;3.720;2023-01-09T15:11:04;8.47;;;1.40;;
20976;SDS011;10647;51.016;3.720;2023-01-09T15:16:20;8.70;;;1.00;;
20976;SDS011;10647;51.016;3.720;2023-01-09T15:18:55;9.27;;;1.60;;
20976;SDS011;10647;51.016;3.720;2023-01-09T15:21:20;6.67;;;1.23;;
20976;SDS011;10647;51.016;3.720;2023-01-09T15:23:50;5.97;;;1.13;;
20976;SDS011;10647;51.016;3.720;2023-01-09T15:26:25;8.87;;;1.30;;
20976;SDS011;10647;51.016;3.720;2023-01-09T15:29:04;5.07;;;1.33;;
20976;SDS011;10647;51.016;3.720;2023-01-09T15:31:57;5.40;;;1.37;;
20976;SDS011;10647;51.016;3.720;2023-01-09T15:34:27;6.00;;;1.20;;
20976;SDS011;10647;51.016;3.720;2023-01-09T15:36:55;8.60;;;1.50;;
20976;SDS011;10647;51.016;3.720;2023-01-09T15:39:24;8.63;;;1.40;;
20976;SDS011;10647;51.016;3.720;2023-01-09T15:41:57;5.30;;;1.20;;
20976;SDS011;10647;51.016;3.720;2023-01-09T15:44:45;8.03;;;1.40;;
20976;SDS011;10647;51.016;3.720;2023-01-09T15:47:25;8.93;;;1.50;;
20976;SDS011;10647;51.016;3.720;2023-01-09T15:52:22;12.60;;;1.80;;
20976;SDS011;10647;51.016;3.720;2023-01-09T15:54:51;10.73;;;2.07;;
20976;SDS011;10647;51.016;3.720;2023-01-09T15:59:56;10.20;;;1.63;;
20976;SDS011;10647;51.016;3.720;2023-01-09T16:02:25;9.80;;;2.10;;
20976;SDS011;10647;51.016;3.720;2023-01-09T16:05:07;11.20;;;2.60;;
20976;SDS011;10647;51.016;3.720;2023-01-09T16:07:59;18.23;;;2.60;;
20976;SDS011;10647;51.016;3.720;2023-01-09T16:10:32;11.77;;;2.90;;
20976;SDS011;10647;51.016;3.720;2023-01-09T16:13:20;11.13;;;2.60;;
20976;SDS011;10647;51.016;3.720;2023-01-09T16:22:55;13.77;;;2.90;;
20976;SDS011;10647;51.016;3.720;2023-01-09T16:37:17;20.33;;;4.80;;
20976;SDS011;10647;51.016;3.720;2023-01-09T16:43:07;18.87;;;4.50;;
20976;SDS011;10647;51.016;3.720;2023-01-09T16:45:55;16.00;;;4.67;;
20976;SDS011;10647;51.016;3.720;2023-01-09T16:51:04;18.23;;;4.67;;
20976;SDS011;10647;51.016;3.720;2023-01-09T16:53:34;22.20;;;5.10;;
20976;SDS011;10647;51.016;3.720;2023-01-09T16:56:01;16.53;;;4.30;;
20976;SDS011;10647;51.016;3.720;2023-01-09T16:58:30;14.43;;;2.83;;
20976;SDS011;10647;51.016;3.720;2023-01-09T17:00:59;13.77;;;2.60;;
20976;SDS011;10647;51.016;3.720;2023-01-09T17:03:27;13.83;;;2.70;;
20976;SDS011;10647;51.016;3.720;2023-01-09T17:05:57;14.87;;;2.43;;
20976;SDS011;10647;51.016;3.720;2023-01-09T17:08:31;12.83;;;1.93;;
20976;SDS011;10647;51.016;3.720;2023-01-09T17:10:57;8.47;;;1.70;;
20976;SDS011;10647;51.016;3.720;2023-01-09T17:13:25;7.37;;;1.40;;
20976;SDS011;10647;51.016;3.720;2023-01-09T17:15:53;3.97;;;0.80;;
20976;SDS011;10647;51.016;3.720;2023-01-09T17:21:00;4.37;;;1.30;;
20976;SDS011;10647;51.016;3.720;2023-01-09T17:23:33;11.80;;;1.43;;
20976;SDS011;10647;51.016;3.720;2023-01-09T17:26:02;12.13;;;1.93;;
20976;SDS011;10647;51.016;3.720;2023-01-09T17:28:48;19.50;;;2.07;;
20976;SDS011;10647;51.016;3.720;2023-01-09T17:31:16;18.73;;;1.83;;
20976;SDS011;10647;51.016;3.720;2023-01-09T17:33:44;10.83;;;1.73;;
20976;SDS011;10647;51.016;3.720;2023-01-09T17:36:21;12.77;;;2.00;;
20976;SDS011;10647;51.016;3.720;2023-01-09T17:38:50;14.80;;;1.70;;
20976;SDS011;10647;51.016;3.720;2023-01-09T17:41:21;13.03;;;1.67;;
20976;SDS011;10647;51.016;3.720;2023-01-09T17:43:50;16.00;;;2.03;;
20976;SDS011;10647;51.016;3.720;2023-01-09T17:46:21;14.27;;;1.77;;
20976;SDS011;10647;51.016;3.720;2023-01-09T17:48:51;10.57;;;2.30;;
20976;SDS011;10647;51.016;3.720;2023-01-09T17:51:19;12.93;;;2.07;;
20976;SDS011;10647;51.016;3.720;2023-01-09T17:53:47;12.20;;;2.40;;
20976;SDS011;10647;51.016;3.720;2023-01-09T17:56:16;13.73;;;2.80;;
20976;SDS011;10647;51.016;3.720;2023-01-09T17:58:46;13.43;;;2.90;;
20976;SDS011;10647;51.016;3.720;2023-01-09T18:01:14;13.43;;;2.73;;
20976;SDS011;10647;51.016;3.720;2023-01-09T18:03:43;10.30;;;2.40;;
20976;SDS011;10647;51.016;3.720;2023-01-09T18:06:14;12.03;;;2.40;;
20976;SDS011;10647;51.016;3.720;2023-01-09T18:08:43;11.70;;;2.43;;
20976;SDS011;10647;51.016;3.720;2023-01-09T18:11:13;17.97;;;2.77;;